Time;durP1;ratioP1;P1;durP2;ratioP2;P2;SDS_P1;SDS_P2;PMS_P1;PMS_P2;Temp;Humidity;BMP_temperature;BMP_pressure;BME280_temperature;BME280_humidity;BME280_pressure;Samples;Min_cycle;Max_cycle;Signal;HPM_P1;HPM_P2
2023/09/30 00:00:09;;;;;;;6.45;4.43;;;18.80;89.60;;;;;;6110424;23;20136;-80
2023/09/30 00:02:37;;;;;;;6.10;4.63;;;18.90;89.60;;;;;;6085900;23;20162;-80
2023/09/30 00:05:03;;;;;;;5.07;4.35;;;18.90;89.60;;;;;;6084777;23;20151;-80
2023/09/30 00:07:29;;;;;;;5.95;4.25;;;18.90;89.70;;;;;;6110676;23;20152;-80
2023/09/30 00:09:55;;;;;;;5.68;4.30;;;18.80;89.60;;;;;;6134581;23;20546;-80
2023/09/30 00:12:21;;;;;;;4.65;4.15;;;18.80;89.70;;;;;;6109773;23;20159;-79
2023/09/30 00:14:48;;;;;;;5.20;4.60;;;18.80;89.70;;;;;;6087154;23;20155;-80
2023/09/30 00:17:22;;;;;;;5.45;4.47;;;18.80;89.60;;;;;;6086568;23;20168;-80
2023/09/30 00:19:54;;;;;;;5.43;4.47;;;18.90;89.80;;;;;;6061005;23;20263;-78
2023/09/30 00:22:20;;;;;;;5.20;4.20;;;18.80;89.60;;;;;;6211152;23;20167;-80
2023/09/30 00:24:50;;;;;;;5.28;4.75;;;18.90;89.60;;;;;;6085974;23;20148;-80
2023/09/30 00:27:19;;;;;;;5.13;4.30;;;18.90;89.60;;;;;;6061939;23;20156;-80
2023/09/30 00:29:45;;;;;;;5.13;4.18;;;18.80;89.40;;;;;;6134189;23;20575;-80
2023/09/30 00:32:17;;;;;;;5.97;4.65;;;18.90;89.50;;;;;;6134165;23;20170;-81
2023/09/30 00:34:43;;;;;;;5.40;4.47;;;18.90;89.50;;;;;;6185521;23;20160;-80
2023/09/30 00:37:13;;;;;;;5.65;4.03;;;18.90;89.60;;;;;;6135214;23;20661;-80
2023/09/30 00:39:39;;;;;;;5.55;4.53;;;18.80;90.10;;;;;;6186219;23;20730;-80
2023/09/30 00:42:05;;;;;;;5.40;4.40;;;18.80;89.60;;;;;;6134062;23;20136;-80
2023/09/30 00:44:31;;;;;;;5.35;4.45;;;18.80;89.60;;;;;;6134267;23;20139;-80
2023/09/30 00:46:57;;;;;;;6.40;4.68;;;18.80;89.60;;;;;;6109851;23;20144;-80
2023/09/30 00:49:23;;;;;;;5.40;4.40;;;18.90;89.80;;;;;;6134366;23;20132;-80
2023/09/30 00:51:53;;;;;;;5.28;4.20;;;18.80;89.70;;;;;;6109855;23;20141;-80
2023/09/30 00:54:19;;;;;;;5.90;4.25;;;18.80;89.60;;;;;;6085241;23;20517;-80
2023/09/30 00:56:46;;;;;;;5.22;4.32;;;18.80;89.60;;;;;;6109304;23;20583;-79
2023/09/30 00:59:16;;;;;;;5.22;4.45;;;18.90;89.70;;;;;;6109504;23;20152;-79
2023/09/30 01:01:43;;;;;;;5.97;4.75;;;18.80;89.60;;;;;;6133828;23;20546;-80
2023/09/30 01:04:11;;;;;;;6.22;4.57;;;18.80;89.60;;;;;;6134235;23;20140;-80
2023/09/30 01:06:39;;;;;;;5.25;4.50;;;18.80;89.60;;;;;;6085136;23;20175;-80
2023/09/30 01:09:07;;;;;;;5.28;4.30;;;18.80;89.60;;;;;;6109672;23;20159;-79
2023/09/30 01:11:34;;;;;;;5.55;4.30;;;18.90;89.70;;;;;;6085797;23;20179;-80
2023/09/30 01:14:02;;;;;;;5.93;4.57;;;18.80;89.60;;;;;;6133981;23;20136;-80
2023/09/30 01:16:35;;;;;;;5.25;4.47;;;18.90;89.70;;;;;;6086147;23;20170;-80
2023/09/30 01:19:04;;;;;;;5.40;4.28;;;18.80;89.70;;;;;;6084840;23;20570;-80
2023/09/30 01:21:34;;;;;;;4.70;4.15;;;18.80;89.60;;;;;;6211286;23;20153;-80
2023/09/30 01:24:00;;;;;;;6.43;4.45;;;18.80;89.60;;;;;;6109584;23;20202;-80
2023/09/30 01:26:25;;;;;;;4.93;4.43;;;18.90;89.70;;;;;;6109252;23;20212;-79
2023/09/30 01:28:52;;;;;;;5.45;4.53;;;18.80;89.60;;;;;;6109665;23;20144;-80
2023/09/30 01:31:19;;;;;;;5.82;4.35;;;18.90;89.60;;;;;;6235604;23;20195;-80
2023/09/30 01:33:45;;;;;;;6.47;4.47;;;18.90;89.60;;;;;;6185142;23;20163;-81
2023/09/30 01:36:11;;;;;;;5.22;4.55;;;18.80;89.50;;;;;;6085563;23;20149;-79
2023/09/30 01:38:37;;;;;;;6.03;4.13;;;18.90;89.60;;;;;;6133995;23;20646;-79
2023/09/30 01:41:03;;;;;;;5.13;4.15;;;18.90;89.60;;;;;;6134374;23;20148;-79
2023/09/30 01:43:35;;;;;;;5.75;4.68;;;18.90;89.60;;;;;;6110957;23;20242;-81
2023/09/30 01:46:06;;;;;;;5.88;4.50;;;18.80;89.60;;;;;;6186705;23;20167;-80
2023/09/30 01:48:34;;;;;;;4.63;4.07;;;18.90;89.60;;;;;;6110756;23;20740;-79
2023/09/30 01:51:01;;;;;;;4.63;4.18;;;18.80;89.60;;;;;;6087136;23;20202;-79
2023/09/30 01:53:26;;;;;;;4.90;4.22;;;18.80;89.60;;;;;;6134481;22;20191;-79
2023/09/30 01:55:52;;;;;;;5.78;4.40;;;18.80;89.60;;;;;;6110723;23;20159;-80
2023/09/30 01:58:19;;;;;;;5.32;4.45;;;18.90;89.60;;;;;;6109992;23;20176;-81
2023/09/30 02:00:45;;;;;;;5.50;4.20;;;18.80;89.60;;;;;;6134794;23;20153;-81
2023/09/30 02:03:14;;;;;;;4.70;4.07;;;18.80;89.60;;;;;;6086301;23;20167;-80
2023/09/30 02:05:41;;;;;;;4.95;4.38;;;18.80;89.60;;;;;;6188168;23;20183;-79
2023/09/30 02:08:07;;;;;;;5.80;4.10;;;18.80;89.60;;;;;;6086000;23;20163;-81
2023/09/30 02:10:33;;;;;;;5.85;4.30;;;18.80;89.70;;;;;;6111352;23;20156;-80
2023/09/30 02:12:59;;;;;;;5.32;4.25;;;18.80;89.70;;;;;;6087394;23;20208;-80
2023/09/30 02:15:31;;;;;;;5.80;4.45;;;18.80;89.60;;;;;;6111204;23;20148;-80
2023/09/30 02:18:00;;;;;;;4.63;4.07;;;18.80;89.60;;;;;;6212052;23;20184;-80
2023/09/30 02:20:29;;;;;;;7.03;4.50;;;18.80;89.60;;;;;;6134891;23;20140;-80
2023/09/30 02:22:55;;;;;;;4.93;4.32;;;18.90;89.70;;;;;;6087999;23;20279;-80
2023/09/30 02:25:22;;;;;;;5.38;4.40;;;18.90;90.20;;;;;;6134851;23;20132;-80
2023/09/30 02:27:49;;;;;;;5.07;4.35;;;18.90;89.60;;;;;;6134868;23;20156;-81
2023/09/30 02:30:19;;;;;;;5.80;4.50;;;18.80;89.60;;;;;;6135204;23;20140;-80
2023/09/30 02:32:46;;;;;;;5.68;4.47;;;18.80;89.60;;;;;;6212413;23;20218;-81
2023/09/30 02:35:12;;;;;;;5.68;4.35;;;18.80;89.60;;;;;;6110419;23;20160;-81
2023/09/30 02:37:38;;;;;;;5.00;4.10;;;18.90;89.60;;;;;;6136366;23;20172;-80
2023/09/30 02:40:10;;;;;;;4.82;4.32;;;18.80;89.60;;;;;;6111465;23;20163;-80
2023/09/30 02:42:38;;;;;;;4.78;4.00;;;18.80;89.60;;;;;;6062633;23;20159;-80
2023/09/30 02:45:05;;;;;;;5.65;4.38;;;18.90;89.80;;;;;;6086257;23;20145;-80
2023/09/30 02:47:32;;;;;;;5.47;4.22;;;18.80;89.60;;;;;;6134977;23;20170;-80
2023/09/30 02:49:58;;;;;;;4.80;4.15;;;18.90;89.70;;;;;;6135353;23;20591;-80
2023/09/30 02:52:24;;;;;;;4.82;4.20;;;18.80;89.60;;;;;;6136566;22;20218;-80
2023/09/30 02:54:57;;;;;;;4.65;4.05;;;18.80;89.70;;;;;;6115857;23;20136;-80
2023/09/30 02:57:24;;;;;;;4.80;4.13;;;18.80;89.60;;;;;;6190989;23;20187;-80
2023/09/30 02:59:51;;;;;;;4.32;3.92;;;18.90;89.70;;;;;;6091869;23;20154;-80
2023/09/30 03:02:24;;;;;;;5.93;4.20;;;18.90;89.70;;;;;;6091287;23;20148;-80
2023/09/30 03:04:54;;;;;;;4.55;3.95;;;18.90;89.70;;;;;;6216947;23;20147;-80
2023/09/30 03:07:22;;;;;;;4.88;4.07;;;18.80;89.70;;;;;;6216711;23;20230;-80
2023/09/30 03:09:48;;;;;;;5.13;4.22;;;18.80;89.70;;;;;;6090844;23;20155;-80
2023/09/30 03:12:15;;;;;;;4.65;3.97;;;18.90;89.80;;;;;;6115846;23;20181;-80
2023/09/30 03:14:46;;;;;;;5.80;4.60;;;18.80;89.70;;;;;;6091925;23;20147;-80
2023/09/30 03:17:22;;;;;;;4.80;4.30;;;18.80;89.70;;;;;;6216832;23;20187;-80
2023/09/30 03:19:50;;;;;;;4.75;4.25;;;18.90;89.70;;;;;;6241111;23;20155;-80
2023/09/30 03:22:19;;;;;;;4.68;4.10;;;18.80;89.60;;;;;;6065085;23;20155;-80
2023/09/30 03:24:44;;;;;;;5.97;4.47;;;18.80;89.70;;;;;;6167492;23;20201;-82
2023/09/30 03:27:15;;;;;;;4.68;4.18;;;18.80;89.70;;;;;;6091827;23;20155;-80
2023/09/30 03:29:42;;;;;;;5.05;4.03;;;18.80;89.70;;;;;;6216045;23;20159;-80
2023/09/30 03:32:11;;;;;;;4.88;4.32;;;18.90;89.70;;;;;;6088113;23;20152;-84
2023/09/30 03:34:37;;;;;;;4.60;4.00;;;18.80;89.60;;;;;;6062558;23;20170;-84
2023/09/30 03:37:07;;;;;;;5.18;4.43;;;18.80;90.20;;;;;;6110939;23;20167;-81
2023/09/30 03:39:35;;;;;;;4.97;4.07;;;18.80;89.60;;;;;;6161790;23;20197;-82
2023/09/30 03:42:01;;;;;;;5.55;4.10;;;18.80;89.70;;;;;;6187801;23;20380;-84
2023/09/30 03:44:28;;;;;;;4.78;3.90;;;18.80;89.60;;;;;;6087012;23;20238;-82
2023/09/30 03:46:54;;;;;;;4.80;4.03;;;18.80;89.60;;;;;;6212095;23;20179;-84
2023/09/30 03:49:24;;;;;;;5.45;4.40;;;18.90;89.80;;;;;;6111677;23;20139;-83
2023/09/30 03:51:55;;;;;;;5.00;4.10;;;18.80;89.70;;;;;;6135103;23;20147;-83
2023/09/30 03:54:26;;;;;;;4.63;4.15;;;18.80;89.70;;;;;;6161759;23;20622;-80
2023/09/30 03:56:54;;;;;;;4.72;3.92;;;18.80;89.70;;;;;;6211659;23;20159;-82
2023/09/30 03:59:21;;;;;;;5.43;4.28;;;18.80;89.70;;;;;;6110393;23;20142;-81
2023/09/30 04:01:47;;;;;;;5.07;4.25;;;18.80;89.70;;;;;;6110732;23;20215;-81
2023/09/30 04:04:13;;;;;;;4.50;4.05;;;18.80;89.70;;;;;;6086186;23;20151;-83
2023/09/30 04:06:39;;;;;;;4.75;4.03;;;18.90;89.80;;;;;;6135751;23;20190;-85
2023/09/30 04:09:13;;;;;;;5.78;4.60;;;18.80;89.70;;;;;;6110635;23;20583;-81
2023/09/30 04:11:39;;;;;;;5.93;4.35;;;18.80;89.70;;;;;;6160572;23;20132;-81
2023/09/30 04:14:07;;;;;;;5.25;4.50;;;18.80;89.70;;;;;;6087305;23;20162;-82
2023/09/30 04:16:34;;;;;;;4.57;4.10;;;18.80;89.70;;;;;;6111401;23;20187;-81
2023/09/30 04:19:00;;;;;;;4.95;4.10;;;18.80;89.70;;;;;;6087334;23;20171;-81
2023/09/30 04:21:29;;;;;;;5.20;4.03;;;18.80;89.70;;;;;;6111340;23;20191;-81
2023/09/30 04:23:58;;;;;;;4.70;4.07;;;18.80;89.80;;;;;;6110961;23;20173;-84
2023/09/30 04:26:27;;;;;;;5.45;4.13;;;18.80;89.80;;;;;;6162970;23;20208;-81
2023/09/30 04:28:53;;;;;;;4.63;3.97;;;18.80;89.80;;;;;;6062191;23;20494;-85
2023/09/30 04:31:21;;;;;;;6.18;4.00;;;18.90;89.90;;;;;;6087506;23;20148;-84
2023/09/30 04:33:50;;;;;;;4.43;3.97;;;18.80;89.90;;;;;;6111656;23;20185;-81
2023/09/30 04:36:18;;;;;;;4.68;3.88;;;18.80;89.80;;;;;;6186772;23;20676;-81
2023/09/30 04:38:45;;;;;;;5.25;4.25;;;18.80;89.80;;;;;;6063843;23;20198;-82
2023/09/30 04:41:11;;;;;;;4.40;3.80;;;18.80;89.70;;;;;;6116152;23;20173;-80
2023/09/30 04:43:39;;;;;;;4.05;3.65;;;18.80;89.70;;;;;;6092806;23;20223;-81
2023/09/30 04:46:07;;;;;;;5.70;4.38;;;18.80;89.80;;;;;;6093446;23;20199;-82
2023/09/30 04:48:33;;;;;;;4.57;4.07;;;18.80;89.70;;;;;;6166301;22;20564;-81
2023/09/30 04:50:59;;;;;;;5.40;4.50;;;18.80;89.70;;;;;;6112105;23;20189;-81
2023/09/30 04:53:25;;;;;;;4.50;4.10;;;18.80;89.80;;;;;;6106097;23;20500;-81
2023/09/30 04:55:51;;;;;;;4.20;3.80;;;18.80;89.70;;;;;;6082456;23;20178;-81
2023/09/30 04:58:17;;;;;;;5.00;4.05;;;18.80;89.70;;;;;;6127116;23;20187;-82
2023/09/30 05:00:44;;;;;;;4.70;3.97;;;18.90;89.80;;;;;;6125111;23;20231;-84
2023/09/30 05:03:10;;;;;;;4.65;3.90;;;18.90;89.80;;;;;;6103067;23;20140;-80
2023/09/30 05:05:42;;;;;;;4.63;4.00;;;18.80;89.60;;;;;;6102640;23;20248;-82
2023/09/30 05:08:11;;;;;;;5.25;3.95;;;18.90;89.60;;;;;;6203558;23;20160;-81
2023/09/30 05:10:38;;;;;;;4.35;3.90;;;18.80;89.70;;;;;;6104000;23;20615;-81
2023/09/30 05:13:04;;;;;;;6.00;3.83;;;18.80;89.70;;;;;;6102940;23;20216;-84
2023/09/30 05:15:32;;;;;;;4.35;3.80;;;18.80;89.60;;;;;;6127202;23;20147;-84
2023/09/30 05:17:58;;;;;;;6.00;4.32;;;18.80;89.60;;;;;;6102526;23;20184;-85
2023/09/30 05:20:24;;;;;;;5.00;4.20;;;18.80;89.60;;;;;;6100693;23;20522;-81
2023/09/30 05:22:50;;;;;;;4.30;3.90;;;18.80;89.60;;;;;;6100199;23;20158;-84
2023/09/30 05:25:18;;;;;;;5.25;4.10;;;18.90;89.80;;;;;;6124043;23;20137;-84
2023/09/30 05:27:44;;;;;;;4.63;3.88;;;18.80;89.60;;;;;;6098836;23;20136;-83
2023/09/30 05:30:15;;;;;;;4.65;3.92;;;18.80;89.70;;;;;;6123847;23;20182;-83
2023/09/30 05:32:41;;;;;;;4.82;4.13;;;18.90;89.60;;;;;;6200050;23;20211;-84
2023/09/30 05:35:12;;;;;;;4.97;3.90;;;18.90;89.50;;;;;;6123832;23;20147;-83
2023/09/30 05:37:39;;;;;;;5.07;4.30;;;18.80;89.60;;;;;;6100893;23;20175;-82
2023/09/30 05:40:16;;;;;;;4.93;4.13;;;18.80;89.40;;;;;;6076571;23;20163;-83
2023/09/30 05:42:44;;;;;;;4.90;3.70;;;18.80;89.50;;;;;;6102012;23;20144;-83
2023/09/30 05:45:13;;;;;;;4.68;4.10;;;18.90;89.60;;;;;;6100798;23;20511;-85
2023/09/30 05:47:40;;;;;;;4.10;3.70;;;18.80;89.50;;;;;;6049985;23;20166;-83
2023/09/30 05:50:07;;;;;;;4.57;3.50;;;18.80;89.50;;;;;;6074943;23;20543;-86
2023/09/30 05:52:33;;;;;;;5.32;4.07;;;18.80;89.60;;;;;;6102212;22;20183;-87
2023/09/30 05:55:00;;;;;;;4.28;3.83;;;18.80;89.60;;;;;;6080114;23;20156;-85
2023/09/30 05:57:31;;;;;;;4.90;4.07;;;18.90;89.70;;;;;;6104124;23;20595;-86
2023/09/30 05:59:56;;;;;;;4.50;3.97;;;18.80;89.70;;;;;;6055630;23;20152;-83
2023/09/30 06:02:26;;;;;;;4.57;4.07;;;18.80;89.70;;;;;;6129060;23;20142;-82
2023/09/30 06:04:54;;;;;;;5.53;4.40;;;18.80;89.60;;;;;;6156216;23;20197;-83
2023/09/30 06:07:20;;;;;;;4.80;4.22;;;18.80;89.60;;;;;;6180793;23;20246;-82
2023/09/30 06:09:49;;;;;;;4.93;3.78;;;18.90;89.80;;;;;;6104018;23;20148;-80
2023/09/30 06:12:14;;;;;;;4.68;4.05;;;18.90;89.60;;;;;;6105135;23;20189;-87
2023/09/30 06:14:41;;;;;;;4.85;4.18;;;18.80;89.60;;;;;;6079964;23;20175;-85
2023/09/30 06:17:07;;;;;;;4.32;3.67;;;18.80;89.60;;;;;;6154255;22;20139;-83
2023/09/30 06:19:33;;;;;;;5.50;3.88;;;18.80;89.60;;;;;;6104213;23;20132;-87
2023/09/30 06:22:09;;;;;;;5.82;4.55;;;18.80;89.60;;;;;;6128165;23;20138;-84
2023/09/30 06:24:39;;;;;;;5.03;3.85;;;18.90;89.70;;;;;;6079051;23;20582;-87
2023/09/30 06:27:06;;;;;;;5.20;3.92;;;18.90;89.70;;;;;;6078980;23;20464;-82
2023/09/30 06:29:33;;;;;;;4.75;4.03;;;18.90;89.60;;;;;;6128318;23;20132;-84
2023/09/30 06:31:59;;;;;;;5.90;4.32;;;18.80;89.60;;;;;;6105069;23;20132;-85
2023/09/30 06:34:25;;;;;;;4.45;3.72;;;18.80;89.60;;;;;;6128464;23;20170;-82
2023/09/30 06:36:53;;;;;;;4.47;3.78;;;18.80;89.60;;;;;;6128351;23;20159;-85
2023/09/30 06:39:19;;;;;;;4.78;4.07;;;18.80;89.60;;;;;;6105638;23;20205;-83
2023/09/30 06:41:46;;;;;;;3.80;3.40;;;18.80;89.30;;;;;;6126763;23;20583;-85
2023/09/30 06:44:14;;;;;;;3.65;3.10;;;18.90;88.50;;;;;;6127656;23;20204;-84
2023/09/30 06:46:44;;;;;;;3.63;3.15;;;18.90;88.30;;;;;;6103388;23;20151;-86
2023/09/30 06:49:13;;;;;;;3.63;3.10;;;18.90;88.70;;;;;;6055344;23;20210;-84
2023/09/30 06:51:43;;;;;;;4.22;3.13;;;18.90;87.70;;;;;;6179829;23;20174;-83
2023/09/30 06:54:13;;;;;;;3.85;3.15;;;18.80;87.20;;;;;;6078234;23;20199;-84
2023/09/30 06:56:43;;;;;;;3.90;2.92;;;18.90;87.20;;;;;;6078779;23;20636;-83
2023/09/30 06:59:11;;;;;;;4.88;3.25;;;18.90;86.80;;;;;;6180483;23;20188;-83
2023/09/30 07:01:38;;;;;;;3.97;3.30;;;18.90;86.80;;;;;;6055353;23;20151;-85
2023/09/30 07:04:07;;;;;;;3.95;3.10;;;18.80;86.60;;;;;;6103208;23;20139;-83
2023/09/30 07:06:37;;;;;;;3.85;3.08;;;18.90;86.70;;;;;;6203874;23;20561;-84
2023/09/30 07:09:04;;;;;;;3.88;2.92;;;18.80;86.20;;;;;;6054239;23;20644;-86
2023/09/30 07:11:33;;;;;;;3.20;2.90;;;18.90;86.40;;;;;;6127919;23;20145;-84
2023/09/30 07:13:58;;;;;;;4.50;2.78;;;18.90;86.30;;;;;;6128420;23;20185;-80
2023/09/30 07:16:24;;;;;;;3.83;2.70;;;18.90;86.30;;;;;;6130411;23;20136;-81
2023/09/30 07:18:50;;;;;;;3.53;2.72;;;18.90;85.90;;;;;;6081386;23;20171;-82
2023/09/30 07:21:17;;;;;;;3.28;2.72;;;18.90;85.70;;;;;;6082410;23;20139;-85
2023/09/30 07:23:43;;;;;;;4.45;3.00;;;18.90;85.60;;;;;;6081778;23;20148;-82
2023/09/30 07:26:17;;;;;;;4.18;2.60;;;19.00;85.60;;;;;;6106076;23;20238;-82
2023/09/30 07:28:45;;;;;;;3.38;2.88;;;18.90;85.50;;;;;;6078837;23;20155;-83
2023/09/30 07:31:16;;;;;;;4.40;3.08;;;18.90;85.60;;;;;;6127500;23;20136;-86
2023/09/30 07:33:42;;;;;;;3.92;3.00;;;18.90;85.40;;;;;;6055629;23;20288;-83
2023/09/30 07:36:13;;;;;;;3.08;2.47;;;19.00;85.20;;;;;;6105167;23;20132;-83
2023/09/30 07:38:38;;;;;;;3.42;2.90;;;19.00;85.10;;;;;;6128797;23;20167;-82
2023/09/30 07:41:08;;;;;;;3.33;2.58;;;18.90;85.20;;;;;;6129047;23;20195;-84
2023/09/30 07:43:34;;;;;;;3.70;2.90;;;19.00;84.80;;;;;;6105826;23;20150;-84
2023/09/30 07:46:08;;;;;;;3.28;2.50;;;19.00;85.00;;;;;;6081169;23;20219;-85
2023/09/30 07:48:35;;;;;;;3.70;2.78;;;19.00;84.70;;;;;;6156641;23;20205;-82
2023/09/30 07:51:03;;;;;;;4.05;2.90;;;19.00;85.00;;;;;;6129068;23;20139;-86
2023/09/30 07:53:29;;;;;;;3.25;2.80;;;19.00;85.10;;;;;;6080105;23;20202;-84
2023/09/30 07:55:56;;;;;;;3.85;2.80;;;19.00;85.00;;;;;;6080010;23;20160;-81
2023/09/30 07:58:27;;;;;;;3.55;2.70;;;19.00;85.10;;;;;;6155715;23;20305;-83
2023/09/30 08:00:57;;;;;;;3.58;2.67;;;19.00;84.80;;;;;;6182561;23;20243;-83
2023/09/30 08:03:24;;;;;;;3.10;2.70;;;18.90;84.70;;;;;;6129663;22;20487;-83
2023/09/30 08:05:52;;;;;;;3.80;3.08;;;19.00;84.60;;;;;;6082690;23;20214;-83
2023/09/30 08:08:17;;;;;;;4.32;2.72;;;19.00;84.70;;;;;;6107198;23;20142;-84
2023/09/30 08:10:43;;;;;;;4.00;2.70;;;18.90;84.60;;;;;;6132066;23;20140;-85
2023/09/30 08:13:09;;;;;;;3.25;2.42;;;18.90;84.50;;;;;;6083408;23;20155;-84
2023/09/30 08:15:37;;;;;;;2.53;2.28;;;18.90;84.60;;;;;;6130809;23;20570;-83
2023/09/30 08:18:05;;;;;;;3.88;2.30;;;18.90;84.50;;;;;;6105974;23;20546;-85
2023/09/30 08:20:35;;;;;;;2.55;2.30;;;18.80;84.50;;;;;;6106298;23;20128;-81
2023/09/30 08:23:00;;;;;;;2.80;2.42;;;18.80;84.30;;;;;;6206541;23;20670;-81
2023/09/30 08:25:26;;;;;;;3.13;2.22;;;18.70;84.50;;;;;;6132958;23;20132;-82
2023/09/30 08:27:53;;;;;;;4.45;2.65;;;18.80;84.40;;;;;;6107660;23;20139;-84
2023/09/30 08:30:19;;;;;;;3.00;2.30;;;18.80;84.50;;;;;;6083293;23;20147;-82
2023/09/30 08:32:46;;;;;;;3.88;2.60;;;18.70;84.30;;;;;;6159382;22;20139;-82
2023/09/30 08:35:14;;;;;;;4.43;2.40;;;18.80;84.50;;;;;;6108793;23;20289;-83
2023/09/30 08:37:40;;;;;;;3.22;2.30;;;18.80;84.50;;;;;;6131914;23;20622;-83
2023/09/30 08:40:09;;;;;;;2.95;2.15;;;18.80;84.30;;;;;;6108130;23;20140;-84
2023/09/30 08:42:35;;;;;;;3.33;2.25;;;18.80;84.20;;;;;;6082793;23;20139;-86
2023/09/30 08:45:06;;;;;;;3.10;2.42;;;18.80;84.30;;;;;;6131125;23;20230;-83
2023/09/30 08:47:35;;;;;;;3.03;2.22;;;18.80;84.50;;;;;;6083230;23;20590;-85
2023/09/30 08:50:05;;;;;;;4.18;2.33;;;18.80;84.40;;;;;;6131024;23;20266;-84
2023/09/30 08:52:32;;;;;;;3.83;2.50;;;18.80;84.40;;;;;;6104642;22;20155;-85
2023/09/30 08:54:59;;;;;;;3.95;2.47;;;18.80;84.30;;;;;;6128390;23;20159;-86
2023/09/30 08:57:26;;;;;;;3.50;2.38;;;18.80;84.40;;;;;;6126629;23;20606;-84
2023/09/30 08:59:55;;;;;;;3.90;2.10;;;18.80;84.40;;;;;;6081329;23;20159;-83
2023/09/30 09:02:24;;;;;;;3.40;2.20;;;18.80;84.50;;;;;;6183640;23;20176;-85
2023/09/30 09:04:50;;;;;;;5.13;2.25;;;18.70;84.50;;;;;;6179632;23;20151;-82
2023/09/30 09:07:16;;;;;;;2.65;2.08;;;18.80;84.40;;;;;;6129785;23;20131;-81
2023/09/30 09:09:42;;;;;;;6.18;2.40;;;18.80;84.30;;;;;;6079786;23;20162;-82
2023/09/30 09:12:19;;;;;;;4.65;2.63;;;18.70;84.20;;;;;;6129046;23;20156;-82
2023/09/30 09:14:47;;;;;;;3.55;2.13;;;18.80;84.30;;;;;;6082054;23;20152;-83
2023/09/30 09:17:13;;;;;;;3.53;2.15;;;18.70;83.90;;;;;;6056215;23;20634;-85
2023/09/30 09:19:40;;;;;;;4.65;2.35;;;18.80;83.90;;;;;;6103452;23;20471;-85
2023/09/30 09:22:06;;;;;;;3.30;2.25;;;18.80;83.90;;;;;;6102261;23;20174;-87
2023/09/30 09:24:33;;;;;;;4.15;2.30;;;18.80;84.70;;;;;;6153677;22;20136;-84
2023/09/30 09:27:16;;;;;;;3.85;1.98;;;18.80;83.90;;;;;;6102646;23;20132;-83
2023/09/30 09:29:45;;;;;;;3.40;2.30;;;18.80;83.70;;;;;;6104476;23;20151;-83
2023/09/30 09:32:16;;;;;;;3.65;2.20;;;18.80;83.60;;;;;;6076938;23;20239;-82
2023/09/30 09:34:59;;;;;;;4.25;2.17;;;18.70;83.40;;;;;;6104056;23;20136;-82
2023/09/30 09:37:30;;;;;;;4.05;2.22;;;18.80;83.40;;;;;;6173568;23;20610;-81
2023/09/30 09:39:59;;;;;;;4.78;2.25;;;18.80;83.20;;;;;;6077942;23;20151;-83
2023/09/30 09:42:30;;;;;;;4.30;2.00;;;18.80;83.20;;;;;;6083382;23;20239;-86
2023/09/30 09:45:07;;;;;;;4.07;2.33;;;18.80;83.00;;;;;;6077749;23;20182;-85
2023/09/30 09:47:35;;;;;;;4.32;2.08;;;18.80;82.90;;;;;;6128642;23;20140;-86
2023/09/30 09:50:05;;;;;;;3.28;1.90;;;18.80;82.60;;;;;;6127531;23;20163;-83
2023/09/30 09:52:31;;;;;;;3.30;1.90;;;18.80;82.70;;;;;;6125042;23;20159;-85
2023/09/30 09:54:57;;;;;;;4.28;2.20;;;18.90;82.60;;;;;;6102746;23;20174;-81
2023/09/30 09:57:30;;;;;;;3.88;1.98;;;18.80;82.40;;;;;;6128285;23;20217;-81
2023/09/30 10:00:00;;;;;;;2.95;1.92;;;18.80;82.40;;;;;;6181470;23;20186;-82
2023/09/30 10:02:32;;;;;;;4.53;2.00;;;18.90;82.20;;;;;;6179664;23;20208;-83
2023/09/30 10:05:02;;;;;;;4.07;2.30;;;18.90;82.10;;;;;;6155218;23;20155;-83
2023/09/30 10:07:33;;;;;;;3.85;2.13;;;18.90;82.10;;;;;;6054208;23;20205;-84
2023/09/30 10:10:01;;;;;;;4.88;2.35;;;18.90;82.00;;;;;;6103158;23;20479;-83
2023/09/30 10:12:27;;;;;;;6.13;2.17;;;18.90;81.90;;;;;;6103046;23;20551;-81
2023/09/30 10:14:53;;;;;;;4.60;2.00;;;18.90;81.60;;;;;;6104370;23;20540;-86
2023/09/30 10:17:53;;;;;;;6.18;2.13;;;18.90;81.50;;;;;;6104402;23;20175;-83
2023/09/30 10:20:19;;;;;;;4.28;2.10;;;18.90;81.60;;;;;;6155275;23;20249;-83
2023/09/30 10:22:50;;;;;;;5.50;2.10;;;18.90;81.40;;;;;;6105024;23;20152;-83
2023/09/30 10:25:34;;;;;;;3.30;1.95;;;18.90;81.40;;;;;;6129968;23;20475;-84
2023/09/30 10:28:03;;;;;;;5.78;2.42;;;18.90;81.30;;;;;;6129139;23;20147;-83
2023/09/30 10:30:29;;;;;;;3.38;2.10;;;18.90;81.20;;;;;;6105657;23;20464;-80
2023/09/30 10:33:10;;;;;;;3.58;2.08;;;18.90;81.20;;;;;;6129853;23;20136;-81
2023/09/30 10:35:43;;;;;;;3.47;2.00;;;18.90;81.50;;;;;;6131198;23;20439;-85
2023/09/30 10:38:38;;;;;;;3.08;1.95;;;18.90;81.00;;;;;;6108092;23;20201;-86
2023/09/30 10:41:09;;;;;;;3.70;2.13;;;19.00;81.00;;;;;;6131150;23;20214;-80
2023/09/30 10:43:39;;;;;;;3.65;2.08;;;19.00;81.20;;;;;;6183648;23;20212;-84
2023/09/30 10:46:26;;;;;;;2.38;1.60;;;19.00;81.20;;;;;;6106366;23;20155;-83
2023/09/30 10:48:51;;;;;;;3.80;1.80;;;19.00;81.10;;;;;;6110955;23;20202;-82
2023/09/30 10:51:21;;;;;;;5.07;2.20;;;19.00;81.50;;;;;;6133468;23;20207;-84
2023/09/30 10:53:51;;;;;;;4.07;2.30;;;19.00;81.20;;;;;;6105748;23;20207;-81
2023/09/30 10:56:18;;;;;;;5.35;2.00;;;19.00;81.40;;;;;;6082393;23;20155;-80
2023/09/30 10:58:47;;;;;;;3.25;1.80;;;19.00;81.10;;;;;;6104818;23;20168;-84
2023/09/30 11:01:14;;;;;;;3.10;1.70;;;19.00;82.00;;;;;;6104231;23;20166;-83
2023/09/30 11:03:43;;;;;;;3.42;2.28;;;19.00;81.10;;;;;;6125508;23;20472;-82
2023/09/30 11:06:13;;;;;;;4.88;2.10;;;19.00;81.10;;;;;;6124701;23;20583;-83
2023/09/30 11:08:46;;;;;;;3.95;1.92;;;19.00;81.00;;;;;;6122447;23;20480;-82
2023/09/30 11:11:12;;;;;;;4.35;2.30;;;19.00;81.00;;;;;;6198806;23;20156;-84
2023/09/30 11:13:39;;;;;;;3.33;2.13;;;19.00;80.80;;;;;;6099750;23;20129;-83
2023/09/30 11:16:05;;;;;;;3.25;1.92;;;19.00;81.00;;;;;;6121802;23;20147;-80
2023/09/30 11:18:31;;;;;;;2.72;1.70;;;19.10;80.80;;;;;;6121860;23;20600;-88
2023/09/30 11:21:13;;;;;;;3.55;1.88;;;19.00;80.60;;;;;;6122463;23;20154;-84
2023/09/30 11:23:39;;;;;;;3.33;1.83;;;19.00;80.50;;;;;;6100439;23;20159;-84
2023/09/30 11:26:05;;;;;;;2.90;1.70;;;19.00;80.30;;;;;;6076948;23;20140;-82
2023/09/30 11:28:37;;;;;;;4.15;1.90;;;19.10;80.30;;;;;;6075350;23;20677;-83
2023/09/30 11:31:03;;;;;;;3.13;1.88;;;19.10;80.20;;;;;;6097530;23;20238;-84
2023/09/30 11:33:30;;;;;;;2.78;1.88;;;19.10;80.00;;;;;;6098854;23;20144;-84
2023/09/30 11:36:01;;;;;;;5.70;1.95;;;19.00;79.90;;;;;;6123745;23;20483;-81
2023/09/30 11:38:29;;;;;;;3.38;1.85;;;19.10;79.90;;;;;;6049268;23;20505;-85
2023/09/30 11:41:06;;;;;;;3.03;1.48;;;19.10;79.80;;;;;;6098589;23;20166;-83
2023/09/30 11:43:36;;;;;;;5.13;1.77;;;19.10;79.60;;;;;;6101978;23;20144;-86
2023/09/30 11:46:13;;;;;;;2.97;1.63;;;19.10;79.50;;;;;;6227147;23;20160;-86
2023/09/30 11:49:00;;;;;;;2.72;1.50;;;19.10;79.30;;;;;;6077858;23;20179;-84
2023/09/30 11:51:46;;;;;;;2.33;1.58;;;19.10;79.30;;;;;;6127077;23;20542;-84
2023/09/30 11:54:14;;;;;;;2.97;1.55;;;19.10;79.30;;;;;;6158565;23;20196;-83
2023/09/30 11:56:46;;;;;;;3.45;1.80;;;19.00;79.30;;;;;;6071990;23;20149;-83
2023/09/30 11:59:15;;;;;;;3.00;1.63;;;19.00;79.30;;;;;;6049437;23;20246;-84
2023/09/30 12:01:43;;;;;;;2.00;1.33;;;19.00;79.30;;;;;;6071780;23;20161;-87
2023/09/30 12:04:09;;;;;;;3.45;2.15;;;19.00;79.30;;;;;;6098618;23;20195;-82
2023/09/30 12:06:38;;;;;;;1.73;1.38;;;19.00;79.30;;;;;;6072670;23;20145;-88
2023/09/30 12:09:14;;;;;;;2.42;1.60;;;19.00;79.30;;;;;;6071489;23;20145;-84
2023/09/30 12:11:44;;;;;;;3.22;1.45;;;19.00;79.10;;;;;;6189817;23;20165;-83
2023/09/30 12:14:11;;;;;;;2.60;1.50;;;19.10;79.00;;;;;;6071986;23;20197;-83
2023/09/30 12:16:38;;;;;;;3.10;1.60;;;19.10;79.00;;;;;;6070530;23;20155;-83
2023/09/30 12:19:15;;;;;;;2.90;1.70;;;19.00;78.80;;;;;;6094552;23;20168;-84
2023/09/30 12:21:44;;;;;;;3.30;1.60;;;19.10;78.80;;;;;;6094315;23;20147;-87
2023/09/30 12:24:19;;;;;;;2.25;1.52;;;19.00;78.70;;;;;;6070677;23;20141;-81
2023/09/30 12:26:54;;;;;;;3.40;1.40;;;19.00;78.70;;;;;;6070714;23;20156;-83
2023/09/30 12:29:22;;;;;;;3.53;1.48;;;19.10;78.70;;;;;;6195318;23;20592;-84
2023/09/30 12:31:53;;;;;;;2.03;1.30;;;19.10;78.50;;;;;;6094389;23;20168;-84
2023/09/30 12:34:19;;;;;;;2.15;1.35;;;19.10;78.50;;;;;;6195833;23;20488;-85
2023/09/30 12:36:56;;;;;;;2.03;1.17;;;19.10;78.50;;;;;;6071628;23;20595;-83
2023/09/30 12:39:24;;;;;;;2.42;1.60;;;19.10;78.50;;;;;;6039209;23;20203;-86
2023/09/30 12:41:54;;;;;;;1.58;1.20;;;19.10;78.50;;;;;;6040404;23;20189;-83
2023/09/30 12:44:22;;;;;;;2.05;1.20;;;19.00;78.50;;;;;;6090879;23;20157;-84
2023/09/30 12:46:52;;;;;;;2.95;1.50;;;19.10;78.50;;;;;;6041167;23;20141;-83
2023/09/30 12:49:22;;;;;;;2.35;1.30;;;19.00;78.40;;;;;;6018398;23;20153;-87
2023/09/30 12:51:55;;;;;;;1.98;1.40;;;19.00;78.40;;;;;;6116959;23;20641;-82
2023/09/30 12:54:53;;;;;;;2.05;1.20;;;19.10;78.30;;;;;;6142280;23;20232;-84